Pagina principale
METAR-TAF:

METAR-TAF

Aeroporti :

Batajnica, Serbia

latitudine: 44-56-07N, longitudine: 020-15-27E, altezza: 86 m

Osservazione

Il bollettino è stato emesso 7 minuti fa, alle 13:00 UTC
Vento 4 kt da est
Temperature 6°C
Umidità 81%
Pressione 1007 hPa
Visibilità: 5000 m
foschia

METAR: LYBT 161300Z 10004KT 5000 BR NSC 06/03 Q1007 NOSIG

Ora: 14:07 (13:07 UTC)

Previsione

Il bollettino è stato emesso 2 ore e 7 minuti fa, alle 11:00 UTC
Previsione valida dal 16 alle 12 UTC al 17 alle 12 UTC
Vento 9 kt da sud/sud-est
Visibilità 10 km o più
Nubi sparse ad un'altezza di 4000 ft
Temporaneamente
dal 17 alle 04 UTC al 17 alle 12 UTC
Visibilità: 5000 m
pioggia
Evoluzione graduale
dal 17 alle 07 UTC al 17 alle 09 UTC
Vento 10 kt da nord

TAF: LYBT 161100Z 1612/1712 15009KT 9999 SCT040 TX07/1709Z TN03/1702Z TEMPO 1704/1712 5000 RA BECMG 1707/1709 35010KT

Osservazioni e previsioni meteorologiche di più di 4000 aeroporti (messaggi METAR e TAF).

Le stazioni disponibili sono rappresentate dai dischi gialli e rossi sulla carta.

Puntare il mouse per vedere il nome della stazione.

Clicca sopra per visualizzare le osservazioni e previsioni meteorologiche.

Per cambiare la mappa : fare clic sui pulsanti verdi con una croce nera per ingrandire, il pulsante verde con un trattino per diminuire, o sulla freccia verde per le mappe adiacenti.


METAR-TAF: